Time;durP1;ratioP1;P1;durP2;ratioP2;P2;SDS_P1;SDS_P2;PMS_P1;PMS_P2;Temp;Humidity;BMP_temperature;BMP_pressure;BME280_temperature;BME280_humidity;BME280_pressure;Samples;Min_cycle;Max_cycle;Signal;HPM_P1;HPM_P2
2021/05/05 00:01:48;;;;;;;14.32;1.67;;;6.30;99.90;;;;;;5024935;28;20080;-60
2021/05/05 00:04:14;;;;;;;11.73;2.08;;;6.30;99.90;;;;;;5031230;28;20051;-60
2021/05/05 00:06:41;;;;;;;14.32;2.08;;;6.40;99.90;;;;;;5028274;28;20112;-60
2021/05/05 00:09:06;;;;;;;12.75;1.83;;;6.40;99.90;;;;;;5030205;28;20338;-61
2021/05/05 00:11:32;;;;;;;11.27;1.25;;;6.40;99.90;;;;;;5019933;28;20292;-60
2021/05/05 00:13:58;;;;;;;12.27;1.95;;;6.50;99.90;;;;;;5023586;28;20041;-61
2021/05/05 00:16:24;;;;;;;9.90;1.67;;;6.40;99.90;;;;;;5019666;28;20039;-61
2021/05/05 00:18:49;;;;;;;9.77;1.48;;;6.40;99.90;;;;;;5023266;28;20062;-61
2021/05/05 00:21:15;;;;;;;7.70;1.00;;;6.40;99.90;;;;;;5017504;28;20523;-60
2021/05/05 00:23:41;;;;;;;10.20;1.17;;;6.30;99.40;;;;;;5023230;28;20049;-59
2021/05/05 00:26:07;;;;;;;8.30;1.35;;;6.30;99.60;;;;;;5023840;28;20048;-60
2021/05/05 00:28:33;;;;;;;7.25;1.20;;;6.40;99.90;;;;;;5020663;28;20053;-60
2021/05/05 00:30:58;;;;;;;7.03;1.50;;;6.40;99.90;;;;;;5019312;28;20136;-60
2021/05/05 00:33:24;;;;;;;9.73;1.33;;;6.40;99.90;;;;;;5026352;28;20100;-60
2021/05/05 00:35:50;;;;;;;13.00;1.95;;;6.40;99.90;;;;;;5027001;28;20103;-60
2021/05/05 00:38:16;;;;;;;10.05;1.23;;;6.30;99.90;;;;;;5019147;28;20088;-59
2021/05/05 00:40:41;;;;;;;9.23;1.40;;;6.30;99.90;;;;;;5023216;28;20497;-60
2021/05/05 00:43:07;;;;;;;10.02;1.85;;;6.20;99.90;;;;;;5016215;28;20515;-60
2021/05/05 00:45:35;;;;;;;9.32;1.55;;;6.20;99.60;;;;;;5023163;28;20121;-60
2021/05/05 00:48:01;;;;;;;10.38;1.70;;;6.20;99.80;;;;;;5013440;28;20081;-60
2021/05/05 00:50:28;;;;;;;9.57;1.75;;;6.20;99.90;;;;;;5022485;28;20054;-60
2021/05/05 00:52:53;;;;;;;14.65;2.22;;;6.20;99.90;;;;;;5017625;28;20041;-58
2021/05/05 00:55:20;;;;;;;12.82;1.83;;;6.20;99.90;;;;;;5025209;28;20486;-60
2021/05/05 00:57:46;;;;;;;11.75;2.20;;;6.20;99.90;;;;;;5015713;28;20137;-60
2021/05/05 01:00:14;;;;;;;14.07;2.00;;;6.20;99.90;;;;;;5026701;28;20050;-60
2021/05/05 01:02:39;;;;;;;9.63;2.15;;;6.20;99.90;;;;;;5021066;28;20042;-60
2021/05/05 01:05:08;;;;;;;11.43;2.17;;;6.20;99.90;;;;;;5025451;28;20111;-60
2021/05/05 01:07:35;;;;;;;15.93;3.13;;;6.20;99.90;;;;;;5022809;28;20053;-60
2021/05/05 01:10:01;;;;;;;12.45;1.83;;;6.30;99.90;;;;;;5027543;28;20033;-60
2021/05/05 01:12:26;;;;;;;13.77;2.40;;;6.30;99.90;;;;;;5018973;28;20064;-60
2021/05/05 01:14:52;;;;;;;14.05;2.47;;;6.30;99.90;;;;;;5022258;28;20068;-60
2021/05/05 01:17:18;;;;;;;14.55;2.45;;;6.30;99.90;;;;;;5025610;28;20045;-60
2021/05/05 01:19:44;;;;;;;13.20;2.33;;;6.40;99.90;;;;;;5013823;28;20034;-60
2021/05/05 01:22:10;;;;;;;12.35;2.42;;;6.30;99.90;;;;;;5023681;28;20036;-60
2021/05/05 01:24:36;;;;;;;13.25;1.85;;;6.30;99.90;;;;;;5018970;28;20034;-60
2021/05/05 01:27:05;;;;;;;10.60;2.15;;;6.20;99.90;;;;;;5025109;28;20135;-60
2021/05/05 01:29:32;;;;;;;15.00;2.65;;;6.20;99.90;;;;;;5019790;28;20044;-60
2021/05/05 01:31:58;;;;;;;11.98;2.03;;;6.20;99.90;;;;;;5026955;28;20076;-60
2021/05/05 01:34:24;;;;;;;11.70;2.30;;;6.10;99.90;;;;;;5018966;28;20069;-60
2021/05/05 01:36:50;;;;;;;10.50;1.70;;;6.10;99.90;;;;;;5025406;28;20037;-60
2021/05/05 01:39:18;;;;;;;10.82;1.63;;;6.10;99.90;;;;;;5018280;28;20401;-60
2021/05/05 01:41:45;;;;;;;6.95;1.65;;;6.00;99.90;;;;;;5021531;28;20033;-60
2021/05/05 01:44:12;;;;;;;10.85;1.90;;;6.00;99.90;;;;;;5020501;28;20080;-60
2021/05/05 01:46:46;;;;;;;7.18;1.80;;;5.90;99.90;;;;;;5024457;28;20409;-60
2021/05/05 01:49:20;;;;;;;10.13;1.73;;;5.90;99.90;;;;;;5015626;28;20041;-60
2021/05/05 01:51:47;;;;;;;11.63;2.05;;;5.90;99.90;;;;;;5019893;28;20044;-61
2021/05/05 01:54:13;;;;;;;11.25;1.52;;;5.80;99.90;;;;;;5013809;28;20041;-60
2021/05/05 01:56:39;;;;;;;11.95;2.10;;;5.70;99.90;;;;;;5023634;28;20534;-60
2021/05/05 01:59:05;;;;;;;13.27;2.05;;;5.70;99.90;;;;;;5022069;28;20405;-60
2021/05/05 02:01:30;;;;;;;12.95;2.45;;;5.70;99.90;;;;;;5020853;28;20047;-60
2021/05/05 02:04:02;;;;;;;14.43;2.75;;;5.70;99.90;;;;;;5019478;28;20534;-60
2021/05/05 02:06:29;;;;;;;9.55;2.25;;;5.80;99.90;;;;;;5018849;28;20056;-60
2021/05/05 02:08:56;;;;;;;13.30;1.92;;;5.80;99.90;;;;;;5023514;28;20431;-60
2021/05/05 02:11:22;;;;;;;9.40;2.67;;;5.80;99.90;;;;;;5018312;28;20041;-60
2021/05/05 02:13:48;;;;;;;9.57;2.22;;;5.90;99.90;;;;;;5021976;28;20040;-60
2021/05/05 02:16:14;;;;;;;12.35;2.22;;;5.90;99.90;;;;;;5017708;28;20039;-60
2021/05/05 02:18:40;;;;;;;7.70;1.52;;;6.00;99.90;;;;;;5022273;28;20121;-60
2021/05/05 02:21:06;;;;;;;13.57;1.95;;;6.00;99.90;;;;;;5016358;28;20425;-60
2021/05/05 02:23:34;;;;;;;11.60;1.55;;;5.90;99.90;;;;;;5020648;28;20050;-59
2021/05/05 02:26:00;;;;;;;13.27;1.67;;;5.90;99.90;;;;;;5014145;28;20120;-60
2021/05/05 02:28:27;;;;;;;7.38;1.52;;;5.80;99.90;;;;;;5022607;28;20394;-61
2021/05/05 02:30:53;;;;;;;7.57;1.48;;;5.70;99.90;;;;;;5013384;28;20489;-61
2021/05/05 02:33:19;;;;;;;11.68;1.67;;;5.70;99.80;;;;;;5027183;28;20098;-61
2021/05/05 02:35:45;;;;;;;10.48;2.50;;;5.70;99.90;;;;;;5022384;28;20041;-61
2021/05/05 02:38:11;;;;;;;8.98;1.95;;;5.70;99.90;;;;;;5024222;28;20083;-60
2021/05/05 02:40:37;;;;;;;10.70;1.52;;;5.70;99.90;;;;;;5022674;28;20098;-60
2021/05/05 02:43:03;;;;;;;12.40;1.73;;;5.70;99.90;;;;;;5017913;28;20121;-60
2021/05/05 02:45:30;;;;;;;7.88;1.42;;;5.80;99.90;;;;;;5027368;28;20116;-60
2021/05/05 02:47:56;;;;;;;9.50;1.85;;;5.70;99.90;;;;;;5016189;28;20519;-60
2021/05/05 02:50:22;;;;;;;13.40;1.90;;;5.70;99.90;;;;;;5018614;28;20077;-60
2021/05/05 02:52:48;;;;;;;9.65;1.48;;;5.70;99.90;;;;;;5016081;28;20421;-60
2021/05/05 02:55:14;;;;;;;12.68;2.33;;;5.70;99.90;;;;;;5025197;28;20051;-60
2021/05/05 02:57:40;;;;;;;11.55;2.15;;;5.60;99.90;;;;;;5021862;28;20045;-60
2021/05/05 03:00:08;;;;;;;12.88;1.83;;;5.60;99.90;;;;;;5026490;28;20109;-60
2021/05/05 03:02:34;;;;;;;11.25;2.28;;;5.60;99.90;;;;;;5019139;28;20477;-61
2021/05/05 03:05:00;;;;;;;11.05;2.33;;;5.60;99.90;;;;;;5019171;28;20048;-59
2021/05/05 03:07:25;;;;;;;10.88;1.85;;;5.50;99.90;;;;;;5020206;28;20054;-59
2021/05/05 03:09:51;;;;;;;13.27;2.40;;;5.60;99.90;;;;;;5022951;28;20483;-60
2021/05/05 03:12:17;;;;;;;11.13;2.10;;;5.60;99.90;;;;;;5014080;28;20042;-60
2021/05/05 03:14:43;;;;;;;11.35;1.88;;;5.60;99.90;;;;;;5023288;28;20417;-60
2021/05/05 03:17:10;;;;;;;20.73;3.08;;;5.60;99.90;;;;;;5023572;28;20037;-60
2021/05/05 03:19:36;;;;;;;18.67;2.97;;;5.70;99.90;;;;;;5019635;28;20033;-59
2021/05/05 03:22:02;;;;;;;17.30;2.72;;;5.70;99.90;;;;;;5015541;28;20061;-60
2021/05/05 03:24:28;;;;;;;13.98;3.13;;;5.80;99.90;;;;;;5014288;28;20525;-60
2021/05/05 03:26:54;;;;;;;17.00;2.45;;;5.80;99.90;;;;;;5017921;28;20072;-60
2021/05/05 03:29:20;;;;;;;13.00;2.05;;;5.80;99.90;;;;;;5011182;28;20041;-60
2021/05/05 03:31:45;;;;;;;16.80;3.55;;;5.90;99.90;;;;;;5018190;28;20048;-60
2021/05/05 03:34:11;;;;;;;17.20;2.90;;;5.80;99.90;;;;;;5018705;28;20114;-60
2021/05/05 03:36:37;;;;;;;17.67;3.03;;;5.70;99.90;;;;;;5019559;28;20137;-60
2021/05/05 03:39:08;;;;;;;15.18;2.83;;;5.70;99.90;;;;;;5016879;28;20092;-60
2021/05/05 03:41:34;;;;;;;12.20;2.78;;;5.70;99.90;;;;;;5017396;28;20044;-60
2021/05/05 03:43:59;;;;;;;17.73;2.50;;;5.60;99.90;;;;;;5011754;28;20121;-60
2021/05/05 03:46:25;;;;;;;11.25;3.05;;;5.60;99.90;;;;;;5017992;28;20034;-60
2021/05/05 03:48:51;;;;;;;13.93;2.22;;;5.60;99.90;;;;;;5023161;28;20058;-59
2021/05/05 03:51:17;;;;;;;8.43;1.90;;;5.50;99.90;;;;;;5029238;28;20065;-60
2021/05/05 03:53:44;;;;;;;10.73;1.77;;;5.50;99.50;;;;;;5019586;28;20091;-60
2021/05/05 03:56:10;;;;;;;14.02;2.40;;;5.50;99.80;;;;;;5024019;28;20042;-60
2021/05/05 03:58:36;;;;;;;15.13;2.55;;;5.40;99.40;;;;;;5026172;28;20135;-61
2021/05/05 04:01:02;;;;;;;14.15;2.20;;;5.40;99.70;;;;;;5024639;28;20187;-61
2021/05/05 04:03:28;;;;;;;10.57;1.95;;;5.40;99.90;;;;;;5027274;28;20416;-60
2021/05/05 04:05:55;;;;;;;19.02;3.78;;;5.50;99.90;;;;;;5018328;28;20546;-60
2021/05/05 04:08:21;;;;;;;12.55;2.55;;;5.50;99.90;;;;;;5029609;28;20057;-60
2021/05/05 04:10:47;;;;;;;18.25;2.60;;;5.60;99.90;;;;;;5024154;28;20104;-60
2021/05/05 04:13:13;;;;;;;14.63;3.08;;;5.60;99.90;;;;;;5025504;28;20061;-60
2021/05/05 04:15:39;;;;;;;20.38;2.85;;;5.60;99.90;;;;;;5020668;28;20120;-60
2021/05/05 04:18:05;;;;;;;18.73;2.40;;;5.60;99.90;;;;;;5030035;28;20128;-61
2021/05/05 04:20:32;;;;;;;15.05;2.22;;;5.60;99.90;;;;;;5020122;28;20320;-60
2021/05/05 04:22:58;;;;;;;16.52;2.70;;;5.60;99.90;;;;;;5020663;28;20030;-60
2021/05/05 04:25:24;;;;;;;19.27;2.92;;;5.70;99.90;;;;;;5022722;28;20049;-60
2021/05/05 04:27:50;;;;;;;13.23;2.25;;;5.60;99.90;;;;;;5031240;28;20442;-60
2021/05/05 04:30:19;;;;;;;11.80;1.77;;;5.70;99.90;;;;;;5017813;28;20056;-60
2021/05/05 04:32:50;;;;;;;21.60;10.00;;;5.70;99.90;;;;;;5026590;28;20040;-60
2021/05/05 04:35:17;;;;;;;14.20;2.33;;;5.70;99.90;;;;;;5019401;28;20041;-60
2021/05/05 04:37:43;;;;;;;11.63;1.77;;;5.70;99.90;;;;;;5028079;28;20481;-60
2021/05/05 04:40:09;;;;;;;12.23;2.05;;;5.70;99.90;;;;;;5028109;28;20042;-60
2021/05/05 04:42:36;;;;;;;11.13;2.15;;;5.60;99.90;;;;;;5016914;28;20037;-60
2021/05/05 04:45:06;;;;;;;13.90;2.00;;;5.60;99.90;;;;;;5021854;28;20755;-60
2021/05/05 04:47:34;;;;;;;11.70;2.03;;;5.60;99.90;;;;;;5021196;28;20052;-60
2021/05/05 04:50:02;;;;;;;12.55;2.22;;;5.60;99.90;;;;;;5022775;28;20087;-60
2021/05/05 04:52:31;;;;;;;20.35;3.20;;;5.60;99.90;;;;;;5021643;28;20088;-60
2021/05/05 04:54:57;;;;;;;11.68;2.35;;;5.70;99.90;;;;;;5028199;28;20099;-60
2021/05/05 04:57:23;;;;;;;18.65;2.70;;;5.70;99.90;;;;;;5019667;28;20386;-60
2021/05/05 04:59:49;;;;;;;13.15;2.40;;;5.70;99.90;;;;;;5024168;28;20041;-60
2021/05/05 05:02:15;;;;;;;17.15;2.88;;;5.80;99.90;;;;;;5021953;28;20092;-60
2021/05/05 05:04:41;;;;;;;21.08;3.05;;;5.80;99.90;;;;;;5025966;28;20385;-60
2021/05/05 05:07:08;;;;;;;15.77;2.47;;;5.90;99.90;;;;;;5021757;28;20053;-60
2021/05/05 05:09:34;;;;;;;17.40;2.90;;;6.10;99.90;;;;;;5028243;28;20037;-60
2021/05/05 05:12:01;;;;;;;21.60;3.75;;;6.20;99.90;;;;;;5023582;28;20081;-60
2021/05/05 05:14:27;;;;;;;18.42;3.15;;;6.20;99.90;;;;;;5023985;28;20048;-60
2021/05/05 05:16:53;;;;;;;16.30;3.00;;;6.30;99.50;;;;;;5024787;28;20044;-60
2021/05/05 05:19:19;;;;;;;18.55;2.95;;;6.50;99.50;;;;;;5026435;28;20033;-60
2021/05/05 05:21:45;;;;;;;19.45;2.80;;;6.60;99.40;;;;;;5030565;28;20382;-60
2021/05/05 05:24:11;;;;;;;14.48;3.22;;;6.60;99.40;;;;;;5014128;28;20038;-60
2021/05/05 05:26:37;;;;;;;18.23;3.45;;;6.70;99.50;;;;;;5025377;28;20038;-60
2021/05/05 05:29:03;;;;;;;18.13;3.15;;;6.70;99.20;;;;;;5024826;28;20128;-60
2021/05/05 05:31:29;;;;;;;16.45;3.63;;;6.70;98.50;;;;;;5030913;28;20053;-60
2021/05/05 05:33:55;;;;;;;20.23;3.28;;;6.70;98.60;;;;;;5014699;28;20489;-60
2021/05/05 05:36:21;;;;;;;16.63;3.85;;;6.70;98.00;;;;;;5024621;28;20045;-60
2021/05/05 05:38:46;;;;;;;15.18;2.58;;;6.80;98.30;;;;;;5018484;28;20085;-60
2021/05/05 05:41:13;;;;;;;16.80;2.65;;;6.80;98.10;;;;;;5019238;28;20441;-60
2021/05/05 05:43:39;;;;;;;15.70;3.33;;;6.90;98.00;;;;;;5016220;28;20040;-59
2021/05/05 05:46:05;;;;;;;15.85;2.88;;;6.90;98.20;;;;;;5015099;28;20065;-59
2021/05/05 05:48:30;;;;;;;21.45;3.28;;;6.90;98.10;;;;;;5015164;28;20049;-60
2021/05/05 05:50:57;;;;;;;16.85;2.72;;;6.90;98.00;;;;;;5020414;28;20041;-60
2021/05/05 05:53:23;;;;;;;19.77;3.30;;;6.90;98.20;;;;;;5013477;28;20049;-60
2021/05/05 05:55:50;;;;;;;14.30;2.42;;;6.90;96.70;;;;;;5023206;28;20041;-60
2021/05/05 05:58:16;;;;;;;21.92;3.20;;;6.90;97.40;;;;;;5020746;28;20045;-60
2021/05/05 06:00:43;;;;;;;11.90;2.58;;;6.90;97.70;;;;;;5019555;28;20582;-60
2021/05/05 06:03:09;;;;;;;17.70;2.90;;;6.90;97.80;;;;;;5029186;28;20041;-60
2021/05/05 06:05:35;;;;;;;11.90;2.28;;;6.90;97.50;;;;;;5017700;28;20049;-60
2021/05/05 06:08:05;;;;;;;13.77;2.15;;;7.00;97.30;;;;;;5022672;28;20389;-60
2021/05/05 06:10:31;;;;;;;8.75;1.70;;;7.00;96.50;;;;;;5019115;28;20053;-60
2021/05/05 06:12:57;;;;;;;10.10;1.60;;;7.00;95.90;;;;;;5023641;28;20044;-60
2021/05/05 06:15:23;;;;;;;14.88;2.47;;;7.00;96.10;;;;;;5020881;28;20079;-60
2021/05/05 06:17:49;;;;;;;12.95;1.70;;;7.00;95.90;;;;;;5030553;28;20488;-60
2021/05/05 06:20:16;;;;;;;14.40;2.10;;;7.10;96.80;;;;;;5019125;28;20045;-60
2021/05/05 06:22:42;;;;;;;12.60;1.48;;;7.20;96.90;;;;;;5026506;28;20065;-60
2021/05/05 06:25:09;;;;;;;10.15;1.83;;;7.20;96.30;;;;;;5018601;28;20037;-60
2021/05/05 06:27:36;;;;;;;13.55;2.17;;;7.30;96.20;;;;;;5030978;28;20128;-60
2021/05/05 06:30:05;;;;;;;17.00;2.85;;;7.30;96.50;;;;;;5020160;28;20057;-59
2021/05/05 06:32:30;;;;;;;8.60;1.55;;;7.40;96.00;;;;;;5025124;28;20455;-60
2021/05/05 06:34:56;;;;;;;17.08;1.95;;;7.50;96.70;;;;;;5022954;28;20084;-60
2021/05/05 06:37:23;;;;;;;10.50;2.03;;;7.50;96.60;;;;;;5030858;28;20046;-60
2021/05/05 06:39:49;;;;;;;15.73;2.33;;;7.60;97.10;;;;;;5022129;28;20045;-60
2021/05/05 06:42:15;;;;;;;12.77;2.22;;;7.70;96.30;;;;;;5021992;28;20029;-60
2021/05/05 06:44:41;;;;;;;10.23;2.10;;;7.80;95.30;;;;;;5025312;28;20045;-60
2021/05/05 06:47:07;;;;;;;10.23;2.10;;;7.90;95.50;;;;;;5022662;28;20049;-60
2021/05/05 06:49:34;;;;;;;10.68;2.10;;;8.00;96.20;;;;;;5027226;28;20124;-60
2021/05/05 06:52:01;;;;;;;12.50;2.10;;;8.10;94.00;;;;;;5018116;28;20033;-60
2021/05/05 06:54:27;;;;;;;12.20;2.08;;;8.20;95.20;;;;;;5029826;28;20049;-60
2021/05/05 06:56:54;;;;;;;13.18;2.15;;;8.20;94.70;;;;;;5023308;28;20499;-60
2021/05/05 06:59:19;;;;;;;8.95;2.10;;;8.30;95.00;;;;;;5024216;28;20056;-61
2021/05/05 07:01:45;;;;;;;15.55;2.25;;;8.30;94.80;;;;;;5023023;28;20052;-60
2021/05/05 07:04:11;;;;;;;10.52;2.08;;;8.40;94.40;;;;;;5029224;28;20049;-60
2021/05/05 07:06:37;;;;;;;12.25;2.05;;;8.20;94.80;;;;;;5020195;28;20473;-61
2021/05/05 07:09:04;;;;;;;13.15;2.17;;;8.30;94.90;;;;;;5028322;28;20503;-60
2021/05/05 07:11:32;;;;;;;11.85;2.25;;;8.30;95.70;;;;;;5021826;28;20042;-61
2021/05/05 07:13:58;;;;;;;12.70;1.75;;;8.40;95.80;;;;;;5028093;28;20041;-61
2021/05/05 07:16:24;;;;;;;12.57;2.00;;;8.40;95.30;;;;;;5025501;28;20048;-61
2021/05/05 07:18:50;;;;;;;9.15;1.60;;;8.50;94.80;;;;;;5023301;28;20053;-61
2021/05/05 07:21:16;;;;;;;9.20;1.48;;;8.70;93.90;;;;;;5032921;28;20033;-60
2021/05/05 07:23:45;;;;;;;10.32;2.05;;;8.80;94.60;;;;;;5026783;28;20488;-61
2021/05/05 07:26:11;;;;;;;10.10;1.63;;;8.90;94.60;;;;;;5028421;28;20072;-61
2021/05/05 07:28:38;;;;;;;7.75;1.42;;;9.00;94.00;;;;;;5025840;28;20049;-61
2021/05/05 07:31:05;;;;;;;9.63;1.90;;;9.10;94.30;;;;;;5030958;28;20038;-61
2021/05/05 07:33:32;;;;;;;11.13;1.90;;;9.20;94.10;;;;;;5022595;28;20038;-61
2021/05/05 07:35:58;;;;;;;8.98;1.98;;;9.40;94.90;;;;;;5031904;28;20040;-61
2021/05/05 07:46:33;;;;;;;10.52;2.28;;;9.40;93.60;;;;;;5029178;28;20698;-61
2021/05/05 07:48:48;;;;;;;13.82;2.72;;;9.20;93.60;;;;;;5021334;28;20053;-61
2021/05/05 07:51:15;;;;;;;11.38;2.33;;;8.90;94.00;;;;;;5031883;28;20099;-61
2021/05/05 07:53:42;;;;;;;11.32;2.72;;;8.70;93.80;;;;;;5025789;28;20037;-61
2021/05/05 07:56:08;;;;;;;13.38;2.97;;;8.60;94.20;;;;;;5029517;28;20104;-61
2021/05/05 07:58:34;;;;;;;14.13;2.55;;;8.70;94.90;;;;;;5027641;28;20125;-61
2021/05/05 08:01:00;;;;;;;15.13;2.92;;;8.90;95.00;;;;;;5030053;28;20568;-60
2021/05/05 08:03:26;;;;;;;12.98;3.13;;;9.00;94.70;;;;;;5024280;28;20064;-60
2021/05/05 08:05:51;;;;;;;13.80;2.33;;;8.80;95.30;;;;;;5031525;28;20077;-60
2021/05/05 08:08:17;;;;;;;15.63;3.22;;;8.50;95.80;;;;;;5029805;28;20104;-60
2021/05/05 08:10:44;;;;;;;9.68;2.25;;;8.30;96.10;;;;;;5022908;28;20111;-59
2021/05/05 08:13:10;;;;;;;8.30;1.77;;;8.30;96.80;;;;;;5027083;28;20033;-60
2021/05/05 08:15:36;;;;;;;11.30;2.38;;;8.30;96.60;;;;;;5026128;28;20048;-60
2021/05/05 08:18:04;;;;;;;10.52;3.00;;;8.40;96.60;;;;;;5029902;28;20420;-60
2021/05/05 08:20:30;;;;;;;14.07;3.28;;;8.90;98.30;;;;;;5022269;28;20033;-61
2021/05/05 08:22:56;;;;;;;12.85;3.03;;;9.60;98.50;;;;;;5030938;28;20137;-61
2021/05/05 08:25:22;;;;;;;8.88;2.13;;;10.10;96.00;;;;;;5023317;28;20136;-61
2021/05/05 08:27:48;;;;;;;11.70;2.20;;;10.50;96.00;;;;;;5030854;28;20505;-61
2021/05/05 08:30:16;;;;;;;8.35;1.48;;;11.00;96.50;;;;;;5021881;28;20049;-61
2021/05/05 08:32:45;;;;;;;6.82;1.77;;;11.00;96.00;;;;;;5030486;28;20062;-61
2021/05/05 08:35:12;;;;;;;10.20;2.45;;;10.70;95.10;;;;;;5025470;28;20409;-61
2021/05/05 08:37:39;;;;;;;11.15;1.55;;;9.90;91.40;;;;;;5028339;28;20041;-60
2021/05/05 08:40:08;;;;;;;7.57;1.25;;;8.80;93.30;;;;;;5020050;28;20045;-60
2021/05/05 08:42:34;;;;;;;5.35;1.10;;;8.00;94.90;;;;;;5032272;28;20042;-61
2021/05/05 08:45:00;;;;;;;5.18;0.70;;;7.60;96.20;;;;;;5019895;28;20041;-61
2021/05/05 08:47:26;;;;;;;9.13;1.05;;;7.60;97.70;;;;;;5025238;28;20050;-61
2021/05/05 08:49:53;;;;;;;6.43;1.10;;;7.90;98.10;;;;;;5029529;28;20595;-61
2021/05/05 08:52:19;;;;;;;6.97;0.88;;;8.20;98.20;;;;;;5027052;28;20458;-61
2021/05/05 08:54:46;;;;;;;5.25;0.80;;;8.40;97.50;;;;;;5027796;28;20049;-61
2021/05/05 08:57:15;;;;;;;6.80;1.20;;;8.70;98.20;;;;;;5024816;28;20121;-61
2021/05/05 08:59:42;;;;;;;8.57;1.45;;;8.90;96.30;;;;;;5027858;28;20049;-61
2021/05/05 09:02:08;;;;;;;7.20;1.25;;;8.90;96.70;;;;;;5018316;28;20042;-61
2021/05/05 09:04:36;;;;;;;7.00;1.00;;;8.90;94.90;;;;;;5028560;28;20119;-61
2021/05/05 09:07:02;;;;;;;7.18;1.08;;;9.00;96.40;;;;;;5022181;28;20442;-61
2021/05/05 09:09:39;;;;;;;6.45;1.27;;;9.00;96.40;;;;;;5029959;28;20080;-61
2021/05/05 09:12:15;;;;;;;11.70;2.88;;;8.90;96.10;;;;;;5016569;28;20060;-61
2021/05/05 09:15:01;;;;;;;10.25;2.30;;;8.80;96.30;;;;;;5027489;28;20512;-59
2021/05/05 09:17:30;;;;;;;10.45;2.25;;;8.60;96.60;;;;;;5018366;28;20034;-58
2021/05/05 09:20:28;;;;;;;9.60;1.77;;;8.60;96.10;;;;;;5025071;28;20061;-58
2021/05/05 09:22:55;;;;;;;14.18;2.47;;;8.60;95.00;;;;;;5017978;28;20029;-58
2021/05/05 09:25:31;;;;;;;10.30;2.28;;;8.70;96.20;;;;;;5022828;28;20044;-60
2021/05/05 09:28:11;;;;;;;11.43;2.80;;;9.10;95.40;;;;;;5016944;28;20050;-60
2021/05/05 09:30:39;;;;;;;13.80;2.55;;;9.20;92.80;;;;;;5023919;28;20109;-60
2021/05/05 09:33:05;;;;;;;14.40;2.72;;;9.10;95.60;;;;;;5024084;28;20038;-60
2021/05/05 09:35:30;;;;;;;8.77;1.73;;;9.00;96.10;;;;;;5024712;28;20213;-60
2021/05/05 09:37:58;;;;;;;13.65;2.78;;;9.20;96.40;;;;;;5018228;28;20068;-60
2021/05/05 09:40:25;;;;;;;9.73;1.65;;;9.20;92.90;;;;;;5022427;28;20055;-60
2021/05/05 09:42:52;;;;;;;13.75;2.97;;;9.10;94.70;;;;;;5024470;28;20049;-60
2021/05/05 09:45:18;;;;;;;15.52;2.67;;;9.00;94.60;;;;;;5024586;28;20609;-60
2021/05/05 09:47:56;;;;;;;14.73;3.33;;;8.80;94.20;;;;;;5019446;28;20037;-60
2021/05/05 09:50:37;;;;;;;8.38;2.00;;;8.70;93.90;;;;;;5022686;28;20049;-60
2021/05/05 09:53:21;;;;;;;8.85;1.60;;;9.10;93.30;;;;;;5019309;28;20536;-60
2021/05/05 09:56:06;;;;;;;8.70;1.30;;;9.50;94.00;;;;;;5023100;28;20136;-60
2021/05/05 09:58:35;;;;;;;7.32;1.30;;;9.80;91.40;;;;;;5017603;28;20052;-61
2021/05/05 10:01:09;;;;;;;6.60;1.58;;;10.10;93.70;;;;;;5024000;28;20477;-61
2021/05/05 10:03:39;;;;;;;6.78;1.33;;;10.70;89.90;;;;;;5021225;28;20381;-61
2021/05/05 10:06:19;;;;;;;7.43;1.52;;;11.10;88.70;;;;;;5030270;28;20041;-61
2021/05/05 10:08:45;;;;;;;8.00;1.25;;;11.00;90.10;;;;;;5021397;28;20053;-60
2021/05/05 10:11:11;;;;;;;3.38;0.63;;;10.40;90.60;;;;;;5025853;28;20048;-60
2021/05/05 10:13:38;;;;;;;4.40;0.80;;;9.70;91.20;;;;;;5023962;28;20126;-60
2021/05/05 10:16:05;;;;;;;4.15;0.75;;;9.60;92.00;;;;;;5029907;28;20041;-60
2021/05/05 10:18:31;;;;;;;5.30;1.00;;;9.70;91.60;;;;;;5022041;28;20365;-60
2021/05/05 10:20:58;;;;;;;5.05;1.02;;;10.00;93.70;;;;;;5021372;28;20041;-60
2021/05/05 10:23:24;;;;;;;6.95;1.10;;;10.10;92.80;;;;;;5024726;28;20471;-60
2021/05/05 10:25:50;;;;;;;9.27;1.60;;;10.50;93.70;;;;;;5017517;28;20466;-61
2021/05/05 10:28:17;;;;;;;6.25;1.23;;;10.70;91.90;;;;;;5023869;28;20437;-60
2021/05/05 10:30:44;;;;;;;9.27;1.55;;;10.80;89.00;;;;;;5020711;28;20033;-60
2021/05/05 10:33:18;;;;;;;6.18;1.60;;;11.00;91.50;;;;;;5029719;28;20064;-60
2021/05/05 10:35:45;;;;;;;8.05;1.40;;;11.20;88.60;;;;;;5017852;28;20400;-60
2021/05/05 10:38:31;;;;;;;6.78;1.52;;;11.50;92.10;;;;;;5025109;28;20080;-60
2021/05/05 10:41:15;;;;;;;13.93;1.67;;;11.70;82.60;;;;;;5013966;28;20482;-60
2021/05/05 10:43:48;;;;;;;9.18;1.58;;;11.90;87.10;;;;;;5026273;28;20057;-61
2021/05/05 10:46:31;;;;;;;8.70;1.50;;;12.00;84.00;;;;;;5018647;28;20136;-60
2021/05/05 10:49:10;;;;;;;9.70;1.48;;;11.90;82.80;;;;;;5024228;28;20489;-60
2021/05/05 10:51:45;;;;;;;5.78;0.85;;;11.20;81.60;;;;;;5014283;28;20045;-60
2021/05/05 10:54:15;;;;;;;7.20;1.77;;;10.60;83.80;;;;;;5024943;28;20733;-59
2021/05/05 10:56:43;;;;;;;7.60;1.40;;;10.00;85.20;;;;;;5022342;28;20037;-60
2021/05/05 10:59:11;;;;;;;5.30;1.15;;;10.10;91.20;;;;;;5026262;28;20521;-60
2021/05/05 11:01:41;;;;;;;11.20;2.05;;;10.50;91.50;;;;;;5018129;28;20042;-61
2021/05/05 11:04:08;;;;;;;9.10;1.52;;;10.30;87.50;;;;;;5027305;28;20030;-61
2021/05/05 11:06:35;;;;;;;9.85;1.88;;;10.30;91.10;;;;;;5020313;28;20117;-61
2021/05/05 11:09:06;;;;;;;12.48;2.17;;;10.40;89.60;;;;;;5022969;28;20088;-61
2021/05/05 11:11:40;;;;;;;10.07;1.80;;;10.80;90.40;;;;;;5018469;28;20132;-61
2021/05/05 11:14:07;;;;;;;8.53;1.90;;;11.20;86.70;;;;;;5028575;28;20555;-61
2021/05/05 11:17:05;;;;;;;12.90;2.53;;;11.60;89.90;;;;;;5022209;28;20559;-61
2021/05/05 11:19:37;;;;;;;11.88;2.28;;;11.80;83.70;;;;;;5025632;28;20061;-61
2021/05/05 11:22:18;;;;;;;12.57;2.67;;;11.80;87.40;;;;;;5019027;28;20080;-61
2021/05/05 11:24:46;;;;;;;11.13;2.10;;;11.50;84.00;;;;;;5023146;28;20038;-61
2021/05/05 11:27:15;;;;;;;9.30;2.45;;;11.10;84.30;;;;;;5018154;28;20108;-61
2021/05/05 11:29:47;;;;;;;10.35;2.13;;;11.20;83.50;;;;;;5026282;28;20125;-61
2021/05/05 11:32:26;;;;;;;12.30;2.53;;;11.70;84.00;;;;;;5019927;28;20045;-61
2021/05/05 11:34:54;;;;;;;16.25;2.90;;;12.30;80.80;;;;;;5025302;28;20053;-62
2021/05/05 11:37:25;;;;;;;12.00;2.75;;;12.30;79.00;;;;;;5022475;28;20065;-62
2021/05/05 11:39:55;;;;;;;14.93;2.72;;;12.00;77.40;;;;;;5024809;28;20076;-62
2021/05/05 11:42:27;;;;;;;10.57;2.45;;;12.10;78.10;;;;;;5018958;28;20045;-62
2021/05/05 11:45:19;;;;;;;9.40;2.47;;;12.20;75.20;;;;;;5020143;28;20067;-62
2021/05/05 11:47:46;;;;;;;10.25;1.75;;;11.80;71.90;;;;;;5017695;28;20073;-62
2021/05/05 11:50:19;;;;;;;9.98;2.13;;;11.50;77.30;;;;;;5019833;28;20037;-62
2021/05/05 11:52:51;;;;;;;11.18;2.25;;;11.30;75.30;;;;;;5014364;28;20038;-62
2021/05/05 11:55:18;;;;;;;9.82;2.22;;;11.00;76.60;;;;;;5016328;28;20117;-62
2021/05/05 11:57:55;;;;;;;11.55;1.95;;;10.80;74.90;;;;;;5015420;28;20238;-62
2021/05/05 12:00:26;;;;;;;10.18;2.08;;;10.80;81.40;;;;;;5017603;28;20482;-62
2021/05/05 12:03:04;;;;;;;12.88;3.00;;;10.90;77.90;;;;;;5016584;28;20045;-62
2021/05/05 12:05:36;;;;;;;10.32;2.05;;;11.40;74.60;;;;;;5019444;28;20037;-62
2021/05/05 12:08:15;;;;;;;10.00;1.83;;;11.90;80.80;;;;;;5018474;28;22050;-61
2021/05/05 12:10:55;;;;;;;11.63;2.63;;;11.70;68.50;;;;;;5023604;28;20540;-62
2021/05/05 12:13:40;;;;;;;9.32;2.17;;;11.70;78.80;;;;;;5017729;28;20088;-64
2021/05/05 12:16:17;;;;;;;13.13;2.25;;;11.90;71.90;;;;;;5022084;28;20624;-63
2021/05/05 12:18:46;;;;;;;8.40;1.67;;;11.80;72.20;;;;;;5016095;28;20045;-62
2021/05/05 12:21:15;;;;;;;7.63;1.90;;;11.80;73.70;;;;;;5021474;28;20110;-62
2021/05/05 12:23:47;;;;;;;9.43;2.17;;;11.60;71.20;;;;;;5021619;28;24422;-63
2021/05/05 12:26:16;;;;;;;;;;;11.60;69.60;;;;;;5022154;28;20079;-65
2021/05/05 12:28:44;;;;;;;9.68;2.22;;;11.90;66.10;;;;;;5018622;28;19925;-65
2021/05/05 12:31:37;;;;;;;11.73;2.40;;;12.00;72.90;;;;;;5023357;28;20092;-63
2021/05/05 12:34:05;;;;;;;12.38;2.42;;;12.10;65.90;;;;;;5020604;28;20049;-64
2021/05/05 12:36:33;;;;;;;13.65;3.00;;;11.90;68.50;;;;;;5026535;28;20594;-64
2021/05/05 12:39:03;;;;;;;13.60;2.85;;;11.70;79.40;;;;;;5015469;28;20059;-64
2021/05/05 12:41:47;;;;;;;11.88;2.53;;;11.20;67.90;;;;;;5026415;28;20483;-61
2021/05/05 12:44:15;;;;;;;14.87;3.00;;;11.20;74.20;;;;;;5019327;28;20052;-64
2021/05/05 12:49:27;;;;;;;13.57;3.00;;;12.10;73.10;;;;;;5019174;28;20048;-63
2021/05/05 12:51:53;;;;;;;14.48;2.40;;;12.40;79.10;;;;;;5028049;28;20420;-63
2021/05/05 12:54:29;;;;;;;11.15;2.97;;;12.80;68.70;;;;;;5029005;28;20048;-62
2021/05/05 12:56:55;;;;;;;16.27;3.10;;;13.10;70.50;;;;;;5026051;28;20132;-62
2021/05/05 12:59:32;;;;;;;11.32;2.95;;;13.20;73.00;;;;;;5026191;28;20818;-63
2021/05/05 13:02:06;;;;;;;11.63;2.63;;;13.50;63.00;;;;;;5022758;28;20481;-61
2021/05/05 13:04:38;;;;;;;14.07;2.83;;;13.50;62.10;;;;;;5026705;28;20045;-61